sensor_id;sensor_type;location;lat;lon;timestamp;temperature;humidity
61253;DHT22;47127;47.516;8.596;2022-12-29T00:01:07;7.00;99.90
61253;DHT22;47127;47.516;8.596;2022-12-29T00:03:32;7.00;99.90
61253;DHT22;47127;47.516;8.596;2022-12-29T00:05:58;7.00;99.90
61253;DHT22;47127;47.516;8.596;2022-12-29T00:08:23;7.00;99.90
61253;DHT22;47127;47.516;8.596;2022-12-29T00:11:05;7.00;99.90
61253;DHT22;47127;47.516;8.596;2022-12-29T00:13:31;7.00;99.90
61253;DHT22;47127;47.516;8.596;2022-12-29T00:16:16;7.00;99.90
61253;DHT22;47127;47.516;8.596;2022-12-29T00:18:41;7.00;99.90
61253;DHT22;47127;47.516;8.596;2022-12-29T00:21:17;7.00;99.90
61253;DHT22;47127;47.516;8.596;2022-12-29T00:24:01;7.10;99.90
61253;DHT22;47127;47.516;8.596;2022-12-29T00:27:11;7.10;99.90
61253;DHT22;47127;47.516;8.596;2022-12-29T00:29:56;7.30;99.90
61253;DHT22;47127;47.516;8.596;2022-12-29T00:32:40;7.30;99.90
61253;DHT22;47127;47.516;8.596;2022-12-29T00:35:29;7.30;99.90
61253;DHT22;47127;47.516;8.596;2022-12-29T00:37:57;7.30;99.90
61253;DHT22;47127;47.516;8.596;2022-12-29T00:40:44;7.40;99.50
61253;DHT22;47127;47.516;8.596;2022-12-29T00:43:41;7.40;99.40
61253;DHT22;47127;47.516;8.596;2022-12-29T00:46:26;7.50;99.20
61253;DHT22;47127;47.516;8.596;2022-12-29T00:48:51;7.60;98.50
61253;DHT22;47127;47.516;8.596;2022-12-29T00:51:35;7.70;98.40
61253;DHT22;47127;47.516;8.596;2022-12-29T00:54:01;7.70;98.60
61253;DHT22;47127;47.516;8.596;2022-12-29T00:56:26;7.80;98.70
61253;DHT22;47127;47.516;8.596;2022-12-29T00:58:52;7.80;98.90
61253;DHT22;47127;47.516;8.596;2022-12-29T01:01:17;7.80;98.30
61253;DHT22;47127;47.516;8.596;2022-12-29T01:03:43;7.90;98.40
61253;DHT22;47127;47.516;8.596;2022-12-29T01:06:10;7.90;97.90
61253;DHT22;47127;47.516;8.596;2022-12-29T01:08:36;7.90;97.60
61253;DHT22;47127;47.516;8.596;2022-12-29T01:11:07;7.90;97.70
61253;DHT22;47127;47.516;8.596;2022-12-29T01:13:34;8.00;97.40
61253;DHT22;47127;47.516;8.596;2022-12-29T01:15:59;8.00;97.20
61253;DHT22;47127;47.516;8.596;2022-12-29T01:18:26;8.00;97.80
61253;DHT22;47127;47.516;8.596;2022-12-29T01:21:01;8.00;98.00
61253;DHT22;47127;47.516;8.596;2022-12-29T01:23:28;8.00;97.90
61253;DHT22;47127;47.516;8.596;2022-12-29T01:25:54;8.00;98.00
61253;DHT22;47127;47.516;8.596;2022-12-29T01:28:20;8.00;98.10
61253;DHT22;47127;47.516;8.596;2022-12-29T01:30:45;8.00;98.00
61253;DHT22;47127;47.516;8.596;2022-12-29T01:33:11;8.10;98.40
61253;DHT22;47127;47.516;8.596;2022-12-29T01:35:36;8.20;98.20
61253;DHT22;47127;47.516;8.596;2022-12-29T01:38:02;8.20;99.00
61253;DHT22;47127;47.516;8.596;2022-12-29T01:40:27;8.30;99.20
61253;DHT22;47127;47.516;8.596;2022-12-29T01:42:53;8.50;99.20
61253;DHT22;47127;47.516;8.596;2022-12-29T01:45:19;8.50;99.70
61253;DHT22;47127;47.516;8.596;2022-12-29T01:47:48;8.60;99.90
61253;DHT22;47127;47.516;8.596;2022-12-29T01:52:59;8.80;99.90
61253;DHT22;47127;47.516;8.596;2022-12-29T01:55:27;8.80;99.90
61253;DHT22;47127;47.516;8.596;2022-12-29T01:57:55;8.80;99.90
61253;DHT22;47127;47.516;8.596;2022-12-29T02:00:24;8.80;99.90
61253;DHT22;47127;47.516;8.596;2022-12-29T02:02:54;8.80;99.90
61253;DHT22;47127;47.516;8.596;2022-12-29T02:05:42;8.90;99.90
61253;DHT22;47127;47.516;8.596;2022-12-29T02:08:09;8.90;99.90
61253;DHT22;47127;47.516;8.596;2022-12-29T02:10:36;9.00;99.90
61253;DHT22;47127;47.516;8.596;2022-12-29T02:13:02;9.00;99.90
61253;DHT22;47127;47.516;8.596;2022-12-29T02:15:51;9.00;99.90
61253;DHT22;47127;47.516;8.596;2022-12-29T02:35:35;9.10;99.90
61253;DHT22;47127;47.516;8.596;2022-12-29T02:40:58;9.20;99.90
61253;DHT22;47127;47.516;8.596;2022-12-29T02:43:38;9.30;99.90
61253;DHT22;47127;47.516;8.596;2022-12-29T02:46:12;9.40;99.90
61253;DHT22;47127;47.516;8.596;2022-12-29T02:48:46;9.40;99.90
61253;DHT22;47127;47.516;8.596;2022-12-29T02:51:23;9.50;99.90
61253;DHT22;47127;47.516;8.596;2022-12-29T02:53:52;9.60;99.90
61253;DHT22;47127;47.516;8.596;2022-12-29T02:56:37;9.60;99.90
61253;DHT22;47127;47.516;8.596;2022-12-29T02:59:03;9.70;99.90
61253;DHT22;47127;47.516;8.596;2022-12-29T03:04:26;9.70;99.90
61253;DHT22;47127;47.516;8.596;2022-12-29T03:09:48;9.70;99.90
61253;DHT22;47127;47.516;8.596;2022-12-29T03:12:45;9.80;99.90
61253;DHT22;47127;47.516;8.596;2022-12-29T03:15:52;9.80;99.90
61253;DHT22;47127;47.516;8.596;2022-12-29T03:21:48;9.80;99.90
61253;DHT22;47127;47.516;8.596;2022-12-29T03:24:08;9.80;99.90
61253;DHT22;47127;47.516;8.596;2022-12-29T03:26:35;9.70;99.90
61253;DHT22;47127;47.516;8.596;2022-12-29T03:29:01;9.70;99.90
61253;DHT22;47127;47.516;8.596;2022-12-29T03:31:27;9.80;99.90
61253;DHT22;47127;47.516;8.596;2022-12-29T03:33:53;9.80;99.90
61253;DHT22;47127;47.516;8.596;2022-12-29T03:36:27;9.90;99.90
61253;DHT22;47127;47.516;8.596;2022-12-29T03:39:03;9.90;99.90
61253;DHT22;47127;47.516;8.596;2022-12-29T03:41:32;9.80;99.90
61253;DHT22;47127;47.516;8.596;2022-12-29T03:43:58;9.80;99.90
61253;DHT22;47127;47.516;8.596;2022-12-29T03:46:24;9.80;99.90
61253;DHT22;47127;47.516;8.596;2022-12-29T03:48:49;9.70;99.90
61253;DHT22;47127;47.516;8.596;2022-12-29T03:51:15;9.70;99.90
61253;DHT22;47127;47.516;8.596;2022-12-29T03:53:40;9.70;99.90
61253;DHT22;47127;47.516;8.596;2022-12-29T03:56:06;9.80;99.90
61253;DHT22;47127;47.516;8.596;2022-12-29T03:58:31;9.80;99.90
61253;DHT22;47127;47.516;8.596;2022-12-29T04:00:57;9.80;99.90
61253;DHT22;47127;47.516;8.596;2022-12-29T04:03:22;9.70;99.90
61253;DHT22;47127;47.516;8.596;2022-12-29T04:05:48;9.70;99.90
61253;DHT22;47127;47.516;8.596;2022-12-29T04:08:13;9.70;99.90
61253;DHT22;47127;47.516;8.596;2022-12-29T04:10:39;9.70;99.90
61253;DHT22;47127;47.516;8.596;2022-12-29T04:13:05;9.70;99.90
61253;DHT22;47127;47.516;8.596;2022-12-29T04:15:30;9.70;99.90
61253;DHT22;47127;47.516;8.596;2022-12-29T04:17:56;9.70;99.90
61253;DHT22;47127;47.516;8.596;2022-12-29T04:20:21;9.70;99.90
61253;DHT22;47127;47.516;8.596;2022-12-29T04:23:06;9.70;99.90
61253;DHT22;47127;47.516;8.596;2022-12-29T04:25:32;9.70;99.90
61253;DHT22;47127;47.516;8.596;2022-12-29T04:27:58;9.70;99.90
61253;DHT22;47127;47.516;8.596;2022-12-29T04:30:24;9.60;99.90
61253;DHT22;47127;47.516;8.596;2022-12-29T04:32:50;9.60;99.90
61253;DHT22;47127;47.516;8.596;2022-12-29T04:35:15;9.50;99.90
61253;DHT22;47127;47.516;8.596;2022-12-29T04:37:41;9.50;99.90
61253;DHT22;47127;47.516;8.596;2022-12-29T04:40:07;9.40;99.90
61253;DHT22;47127;47.516;8.596;2022-12-29T04:42:33;9.40;99.90
61253;DHT22;47127;47.516;8.596;2022-12-29T04:44:59;9.30;99.90
61253;DHT22;47127;47.516;8.596;2022-12-29T04:47:24;9.30;99.90
61253;DHT22;47127;47.516;8.596;2022-12-29T04:49:50;9.30;99.90
61253;DHT22;47127;47.516;8.596;2022-12-29T04:52:15;9.30;99.90
61253;DHT22;47127;47.516;8.596;2022-12-29T04:54:41;9.20;99.90
61253;DHT22;47127;47.516;8.596;2022-12-29T04:57:06;9.20;99.90
61253;DHT22;47127;47.516;8.596;2022-12-29T04:59:32;9.20;99.90
61253;DHT22;47127;47.516;8.596;2022-12-29T05:01:57;9.10;99.90
61253;DHT22;47127;47.516;8.596;2022-12-29T05:04:23;9.00;99.90
61253;DHT22;47127;47.516;8.596;2022-12-29T05:06:48;9.00;99.90
61253;DHT22;47127;47.516;8.596;2022-12-29T05:09:14;9.00;99.90
61253;DHT22;47127;47.516;8.596;2022-12-29T05:11:39;9.00;99.90
61253;DHT22;47127;47.516;8.596;2022-12-29T05:14:05;9.10;99.90
61253;DHT22;47127;47.516;8.596;2022-12-29T05:16:30;9.10;99.90
61253;DHT22;47127;47.516;8.596;2022-12-29T05:18:56;9.20;99.90
61253;DHT22;47127;47.516;8.596;2022-12-29T05:21:21;9.20;99.90
61253;DHT22;47127;47.516;8.596;2022-12-29T05:23:47;9.30;99.90
61253;DHT22;47127;47.516;8.596;2022-12-29T05:26:12;9.30;99.90
61253;DHT22;47127;47.516;8.596;2022-12-29T05:28:38;9.30;99.90
61253;DHT22;47127;47.516;8.596;2022-12-29T05:31:04;9.30;99.90
61253;DHT22;47127;47.516;8.596;2022-12-29T05:33:29;9.30;99.90
61253;DHT22;47127;47.516;8.596;2022-12-29T05:35:55;9.30;99.90
61253;DHT22;47127;47.516;8.596;2022-12-29T05:38:20;9.30;99.90
61253;DHT22;47127;47.516;8.596;2022-12-29T05:40:46;9.30;99.90
61253;DHT22;47127;47.516;8.596;2022-12-29T05:43:11;9.40;99.90
61253;DHT22;47127;47.516;8.596;2022-12-29T05:45:37;9.40;99.90
61253;DHT22;47127;47.516;8.596;2022-12-29T05:48:03;9.40;99.90
61253;DHT22;47127;47.516;8.596;2022-12-29T05:50:28;9.40;99.90
61253;DHT22;47127;47.516;8.596;2022-12-29T05:52:54;9.30;99.90
61253;DHT22;47127;47.516;8.596;2022-12-29T05:55:20;9.50;99.90
61253;DHT22;47127;47.516;8.596;2022-12-29T05:57:45;9.50;99.90
61253;DHT22;47127;47.516;8.596;2022-12-29T06:00:11;9.50;99.90
61253;DHT22;47127;47.516;8.596;2022-12-29T06:02:38;9.60;99.90
61253;DHT22;47127;47.516;8.596;2022-12-29T06:05:04;9.60;99.90
61253;DHT22;47127;47.516;8.596;2022-12-29T06:07:30;9.60;99.90
61253;DHT22;47127;47.516;8.596;2022-12-29T06:09:55;9.60;99.90
61253;DHT22;47127;47.516;8.596;2022-12-29T06:12:21;9.60;99.90
61253;DHT22;47127;47.516;8.596;2022-12-29T06:14:47;9.60;99.90
61253;DHT22;47127;47.516;8.596;2022-12-29T06:17:12;9.60;99.90
61253;DHT22;47127;47.516;8.596;2022-12-29T06:19:40;9.70;99.90
61253;DHT22;47127;47.516;8.596;2022-12-29T06:22:05;9.80;99.90
61253;DHT22;47127;47.516;8.596;2022-12-29T06:24:32;9.80;99.90
61253;DHT22;47127;47.516;8.596;2022-12-29T06:26:58;9.90;99.90
61253;DHT22;47127;47.516;8.596;2022-12-29T06:29:23;9.90;99.90
61253;DHT22;47127;47.516;8.596;2022-12-29T06:31:49;10.00;99.90
61253;DHT22;47127;47.516;8.596;2022-12-29T06:34:16;10.00;99.90
61253;DHT22;47127;47.516;8.596;2022-12-29T06:36:41;9.90;99.90
61253;DHT22;47127;47.516;8.596;2022-12-29T06:39:07;10.00;99.90
61253;DHT22;47127;47.516;8.596;2022-12-29T06:41:32;10.00;99.90
61253;DHT22;47127;47.516;8.596;2022-12-29T06:43:58;10.10;99.90
61253;DHT22;47127;47.516;8.596;2022-12-29T06:46:23;10.10;99.90
61253;DHT22;47127;47.516;8.596;2022-12-29T06:48:49;10.10;99.90
61253;DHT22;47127;47.516;8.596;2022-12-29T06:51:14;10.10;99.90
61253;DHT22;47127;47.516;8.596;2022-12-29T06:53:40;10.10;99.90
61253;DHT22;47127;47.516;8.596;2022-12-29T06:56:06;10.20;99.90
61253;DHT22;47127;47.516;8.596;2022-12-29T06:58:31;10.10;99.90
61253;DHT22;47127;47.516;8.596;2022-12-29T07:00:58;10.10;99.90
61253;DHT22;47127;47.516;8.596;2022-12-29T07:03:23;10.00;99.90
61253;DHT22;47127;47.516;8.596;2022-12-29T07:05:49;10.00;99.90
61253;DHT22;47127;47.516;8.596;2022-12-29T07:08:14;10.00;99.90
61253;DHT22;47127;47.516;8.596;2022-12-29T07:10:41;10.00;99.90
61253;DHT22;47127;47.516;8.596;2022-12-29T07:13:07;9.90;99.90
61253;DHT22;47127;47.516;8.596;2022-12-29T07:15:33;9.90;99.90
61253;DHT22;47127;47.516;8.596;2022-12-29T07:17:59;10.00;99.90
61253;DHT22;47127;47.516;8.596;2022-12-29T07:20:24;9.90;99.90
61253;DHT22;47127;47.516;8.596;2022-12-29T07:22:50;10.00;99.90
61253;DHT22;47127;47.516;8.596;2022-12-29T07:25:15;10.00;99.90
61253;DHT22;47127;47.516;8.596;2022-12-29T07:27:41;10.00;99.90
61253;DHT22;47127;47.516;8.596;2022-12-29T07:30:07;10.00;99.90
61253;DHT22;47127;47.516;8.596;2022-12-29T07:32:33;9.90;99.90
61253;DHT22;47127;47.516;8.596;2022-12-29T07:34:59;9.90;99.90
61253;DHT22;47127;47.516;8.596;2022-12-29T07:37:25;10.00;99.90
61253;DHT22;47127;47.516;8.596;2022-12-29T07:39:50;9.90;99.90
61253;DHT22;47127;47.516;8.596;2022-12-29T07:42:16;10.00;99.90
61253;DHT22;47127;47.516;8.596;2022-12-29T07:44:41;9.90;99.90
61253;DHT22;47127;47.516;8.596;2022-12-29T07:47:07;10.00;99.90
61253;DHT22;47127;47.516;8.596;2022-12-29T07:49:32;10.00;99.90
61253;DHT22;47127;47.516;8.596;2022-12-29T07:51:58;10.00;99.90
61253;DHT22;47127;47.516;8.596;2022-12-29T07:54:24;10.00;99.90
61253;DHT22;47127;47.516;8.596;2022-12-29T07:56:49;10.00;99.90
61253;DHT22;47127;47.516;8.596;2022-12-29T07:59:15;10.00;99.90
61253;DHT22;47127;47.516;8.596;2022-12-29T08:01:40;9.90;99.90
61253;DHT22;47127;47.516;8.596;2022-12-29T08:04:06;10.00;99.90
61253;DHT22;47127;47.516;8.596;2022-12-29T08:06:32;10.00;99.90
61253;DHT22;47127;47.516;8.596;2022-12-29T08:08:57;10.00;99.90
61253;DHT22;47127;47.516;8.596;2022-12-29T08:11:23;10.00;99.90
61253;DHT22;47127;47.516;8.596;2022-12-29T08:13:49;9.90;99.90
61253;DHT22;47127;47.516;8.596;2022-12-29T08:16:14;10.00;99.90
61253;DHT22;47127;47.516;8.596;2022-12-29T08:18:40;10.00;99.90
61253;DHT22;47127;47.516;8.596;2022-12-29T08:21:05;10.00;99.90
61253;DHT22;47127;47.516;8.596;2022-12-29T08:23:31;10.00;99.90
61253;DHT22;47127;47.516;8.596;2022-12-29T08:25:58;10.00;99.90
61253;DHT22;47127;47.516;8.596;2022-12-29T08:28:24;9.90;99.90
61253;DHT22;47127;47.516;8.596;2022-12-29T08:30:50;9.90;99.90
61253;DHT22;47127;47.516;8.596;2022-12-29T08:33:15;9.90;99.90
61253;DHT22;47127;47.516;8.596;2022-12-29T08:35:41;10.00;99.90
61253;DHT22;47127;47.516;8.596;2022-12-29T08:38:06;10.00;99.90
61253;DHT22;47127;47.516;8.596;2022-12-29T08:40:33;10.00;99.90
61253;DHT22;47127;47.516;8.596;2022-12-29T08:42:59;10.00;99.90
61253;DHT22;47127;47.516;8.596;2022-12-29T08:45:24;10.00;99.90
61253;DHT22;47127;47.516;8.596;2022-12-29T08:47:50;9.90;99.90
61253;DHT22;47127;47.516;8.596;2022-12-29T08:50:15;10.00;99.90
61253;DHT22;47127;47.516;8.596;2022-12-29T08:52:41;10.00;99.90
61253;DHT22;47127;47.516;8.596;2022-12-29T08:55:07;10.10;99.90
61253;DHT22;47127;47.516;8.596;2022-12-29T08:57:32;10.20;99.90
61253;DHT22;47127;47.516;8.596;2022-12-29T08:59:58;10.30;99.90
61253;DHT22;47127;47.516;8.596;2022-12-29T09:02:23;10.30;99.90
61253;DHT22;47127;47.516;8.596;2022-12-29T09:04:49;10.30;99.90
61253;DHT22;47127;47.516;8.596;2022-12-29T09:07:14;10.40;99.90
61253;DHT22;47127;47.516;8.596;2022-12-29T09:09:40;10.50;99.90
61253;DHT22;47127;47.516;8.596;2022-12-29T09:12:06;10.60;99.90
61253;DHT22;47127;47.516;8.596;2022-12-29T09:14:31;10.70;99.90
61253;DHT22;47127;47.516;8.596;2022-12-29T09:16:56;10.80;99.90
61253;DHT22;47127;47.516;8.596;2022-12-29T09:19:41;10.90;99.90
61253;DHT22;47127;47.516;8.596;2022-12-29T09:22:06;11.00;99.90
61253;DHT22;47127;47.516;8.596;2022-12-29T09:24:32;11.00;99.90
61253;DHT22;47127;47.516;8.596;2022-12-29T09:26:57;11.00;99.90
61253;DHT22;47127;47.516;8.596;2022-12-29T09:29:23;11.00;99.90
61253;DHT22;47127;47.516;8.596;2022-12-29T09:31:49;11.00;99.90
61253;DHT22;47127;47.516;8.596;2022-12-29T09:34:14;10.90;99.90
61253;DHT22;47127;47.516;8.596;2022-12-29T09:36:40;11.00;99.90
61253;DHT22;47127;47.516;8.596;2022-12-29T09:39:06;11.00;99.90
61253;DHT22;47127;47.516;8.596;2022-12-29T09:47:30;11.10;99.90
61253;DHT22;47127;47.516;8.596;2022-12-29T09:50:03;11.00;99.90
61253;DHT22;47127;47.516;8.596;2022-12-29T09:53:28;11.00;99.90
61253;DHT22;47127;47.516;8.596;2022-12-29T09:55:39;11.00;99.90
61253;DHT22;47127;47.516;8.596;2022-12-29T09:58:12;11.00;99.90
61253;DHT22;47127;47.516;8.596;2022-12-29T10:03:44;11.10;99.90
61253;DHT22;47127;47.516;8.596;2022-12-29T10:06:26;11.10;99.90
61253;DHT22;47127;47.516;8.596;2022-12-29T10:09:17;11.00;99.90
61253;DHT22;47127;47.516;8.596;2022-12-29T10:15:09;11.10;99.90
61253;DHT22;47127;47.516;8.596;2022-12-29T10:18:20;11.00;99.90
61253;DHT22;47127;47.516;8.596;2022-12-29T10:20:52;11.00;99.90
61253;DHT22;47127;47.516;8.596;2022-12-29T10:23:30;11.10;99.90
61253;DHT22;47127;47.516;8.596;2022-12-29T10:25:58;11.20;99.90
61253;DHT22;47127;47.516;8.596;2022-12-29T10:28:40;11.20;99.90
61253;DHT22;47127;47.516;8.596;2022-12-29T10:31:16;11.30;99.90
61253;DHT22;47127;47.516;8.596;2022-12-29T10:33:43;11.30;99.90
61253;DHT22;47127;47.516;8.596;2022-12-29T10:36:34;11.30;99.90
61253;DHT22;47127;47.516;8.596;2022-12-29T10:39:19;11.30;99.90
61253;DHT22;47127;47.516;8.596;2022-12-29T10:41:51;11.50;99.90
61253;DHT22;47127;47.516;8.596;2022-12-29T10:44:19;11.60;99.90
61253;DHT22;47127;47.516;8.596;2022-12-29T10:46:53;11.70;99.90
61253;DHT22;47127;47.516;8.596;2022-12-29T10:49:19;11.70;99.90
61253;DHT22;47127;47.516;8.596;2022-12-29T10:51:46;11.80;99.90
61253;DHT22;47127;47.516;8.596;2022-12-29T10:54:20;11.80;99.90
61253;DHT22;47127;47.516;8.596;2022-12-29T10:56:51;11.90;99.90
61253;DHT22;47127;47.516;8.596;2022-12-29T10:59:25;11.90;99.90
61253;DHT22;47127;47.516;8.596;2022-12-29T11:07:24;12.10;99.90
61253;DHT22;47127;47.516;8.596;2022-12-29T11:09:51;12.10;99.90
61253;DHT22;47127;47.516;8.596;2022-12-29T11:14:46;12.00;99.90
61253;DHT22;47127;47.516;8.596;2022-12-29T11:17:16;12.00;99.90
61253;DHT22;47127;47.516;8.596;2022-12-29T11:19:43;12.00;99.90
61253;DHT22;47127;47.516;8.596;2022-12-29T11:22:27;12.00;99.90
61253;DHT22;47127;47.516;8.596;2022-12-29T11:24:54;12.00;99.90
61253;DHT22;47127;47.516;8.596;2022-12-29T11:27:29;12.00;99.90
61253;DHT22;47127;47.516;8.596;2022-12-29T11:29:55;12.10;99.90
61253;DHT22;47127;47.516;8.596;2022-12-29T11:32:26;12.00;99.90
61253;DHT22;47127;47.516;8.596;2022-12-29T11:34:53;12.10;99.90
61253;DHT22;47127;47.516;8.596;2022-12-29T11:37:39;12.10;99.90
61253;DHT22;47127;47.516;8.596;2022-12-29T11:40:18;12.10;99.90
61253;DHT22;47127;47.516;8.596;2022-12-29T11:42:53;12.00;99.90
61253;DHT22;47127;47.516;8.596;2022-12-29T11:45:21;11.90;99.90
61253;DHT22;47127;47.516;8.596;2022-12-29T11:47:50;12.00;99.90
61253;DHT22;47127;47.516;8.596;2022-12-29T11:50:31;12.00;99.90
61253;DHT22;47127;47.516;8.596;2022-12-29T11:53:21;11.90;99.90
61253;DHT22;47127;47.516;8.596;2022-12-29T11:56:01;11.90;99.90
61253;DHT22;47127;47.516;8.596;2022-12-29T11:58:35;11.90;99.90
61253;DHT22;47127;47.516;8.596;2022-12-29T12:01:13;11.80;99.90
61253;DHT22;47127;47.516;8.596;2022-12-29T12:04:01;11.90;99.90
61253;DHT22;47127;47.516;8.596;2022-12-29T12:06:28;12.00;99.90
61253;DHT22;47127;47.516;8.596;2022-12-29T12:09:25;12.00;99.90
61253;DHT22;47127;47.516;8.596;2022-12-29T12:11:57;12.10;99.90
61253;DHT22;47127;47.516;8.596;2022-12-29T12:14:38;12.10;99.90
61253;DHT22;47127;47.516;8.596;2022-12-29T12:17:14;12.10;99.90
61253;DHT22;47127;47.516;8.596;2022-12-29T12:19:53;12.20;99.90
61253;DHT22;47127;47.516;8.596;2022-12-29T12:27:42;12.20;99.90
61253;DHT22;47127;47.516;8.596;2022-12-29T12:30:21;12.20;99.90
61253;DHT22;47127;47.516;8.596;2022-12-29T12:33:24;12.20;99.90
61253;DHT22;47127;47.516;8.596;2022-12-29T12:41:20;12.20;99.90
61253;DHT22;47127;47.516;8.596;2022-12-29T12:43:55;12.30;99.90
61253;DHT22;47127;47.516;8.596;2022-12-29T12:49:18;12.20;99.90
61253;DHT22;47127;47.516;8.596;2022-12-29T12:52:05;12.30;99.90
61253;DHT22;47127;47.516;8.596;2022-12-29T12:57:31;12.30;99.90
61253;DHT22;47127;47.516;8.596;2022-12-29T13:00:08;12.30;99.90
61253;DHT22;47127;47.516;8.596;2022-12-29T13:02:37;12.40;99.90
61253;DHT22;47127;47.516;8.596;2022-12-29T13:07:58;12.50;99.90
61253;DHT22;47127;47.516;8.596;2022-12-29T13:10:40;12.40;99.90
61253;DHT22;47127;47.516;8.596;2022-12-29T13:21:58;12.50;99.90
61253;DHT22;47127;47.516;8.596;2022-12-29T13:30:15;12.30;99.90
61253;DHT22;47127;47.516;8.596;2022-12-29T13:35:44;12.20;99.90
61253;DHT22;47127;47.516;8.596;2022-12-29T13:38:27;12.10;99.90
61253;DHT22;47127;47.516;8.596;2022-12-29T13:41:02;12.00;99.90
61253;DHT22;47127;47.516;8.596;2022-12-29T13:43:31;12.00;99.90
61253;DHT22;47127;47.516;8.596;2022-12-29T13:46:05;12.00;99.90
61253;DHT22;47127;47.516;8.596;2022-12-29T13:48:51;12.00;99.90
61253;DHT22;47127;47.516;8.596;2022-12-29T13:51:20;12.00;99.90
61253;DHT22;47127;47.516;8.596;2022-12-29T13:54:11;11.90;99.90
61253;DHT22;47127;47.516;8.596;2022-12-29T13:56:42;11.90;99.90
61253;DHT22;47127;47.516;8.596;2022-12-29T14:05:02;11.80;99.90
61253;DHT22;47127;47.516;8.596;2022-12-29T14:07:30;11.80;99.90
61253;DHT22;47127;47.516;8.596;2022-12-29T14:10:01;11.80;99.90
61253;DHT22;47127;47.516;8.596;2022-12-29T14:12:39;11.90;99.90
61253;DHT22;47127;47.516;8.596;2022-12-29T14:17:34;11.90;99.90
61253;DHT22;47127;47.516;8.596;2022-12-29T14:20:01;11.90;99.90
61253;DHT22;47127;47.516;8.596;2022-12-29T14:22:28;11.90;99.90
61253;DHT22;47127;47.516;8.596;2022-12-29T14:24:54;11.90;99.90
61253;DHT22;47127;47.516;8.596;2022-12-29T14:29:49;11.90;99.90
61253;DHT22;47127;47.516;8.596;2022-12-29T14:34:59;12.00;99.90
61253;DHT22;47127;47.516;8.596;2022-12-29T14:37:27;12.00;99.90
61253;DHT22;47127;47.516;8.596;2022-12-29T14:40:17;12.00;99.90
61253;DHT22;47127;47.516;8.596;2022-12-29T14:42:47;11.90;99.90
61253;DHT22;47127;47.516;8.596;2022-12-29T14:47:50;11.90;99.90
61253;DHT22;47127;47.516;8.596;2022-12-29T14:50:22;11.90;99.90
61253;DHT22;47127;47.516;8.596;2022-12-29T14:52:57;11.90;99.90
61253;DHT22;47127;47.516;8.596;2022-12-29T14:58:05;11.80;99.90
61253;DHT22;47127;47.516;8.596;2022-12-29T15:00:34;11.80;99.90
61253;DHT22;47127;47.516;8.596;2022-12-29T15:03:07;11.80;99.90
61253;DHT22;47127;47.516;8.596;2022-12-29T15:05:51;11.80;99.90
61253;DHT22;47127;47.516;8.596;2022-12-29T15:08:20;11.80;99.90
61253;DHT22;47127;47.516;8.596;2022-12-29T15:11:12;11.80;99.90
61253;DHT22;47127;47.516;8.596;2022-12-29T15:13:41;11.80;99.90
61253;DHT22;47127;47.516;8.596;2022-12-29T15:18:52;11.80;99.90
61253;DHT22;47127;47.516;8.596;2022-12-29T15:21:24;11.70;99.90
61253;DHT22;47127;47.516;8.596;2022-12-29T15:23:50;11.70;99.90
61253;DHT22;47127;47.516;8.596;2022-12-29T15:26:16;11.70;99.90
61253;DHT22;47127;47.516;8.596;2022-12-29T15:28:48;11.70;99.90
61253;DHT22;47127;47.516;8.596;2022-12-29T15:31:22;11.60;99.90
61253;DHT22;47127;47.516;8.596;2022-12-29T15:34:03;11.60;99.90
61253;DHT22;47127;47.516;8.596;2022-12-29T15:36:38;11.60;99.90
61253;DHT22;47127;47.516;8.596;2022-12-29T15:39:23;11.50;99.90
61253;DHT22;47127;47.516;8.596;2022-12-29T15:42:46;11.50;99.90
61253;DHT22;47127;47.516;8.596;2022-12-29T15:45:14;11.40;99.90
61253;DHT22;47127;47.516;8.596;2022-12-29T15:47:42;11.40;99.90
61253;DHT22;47127;47.516;8.596;2022-12-29T15:50:15;11.40;99.90
61253;DHT22;47127;47.516;8.596;2022-12-29T15:52:44;11.30;99.90
61253;DHT22;47127;47.516;8.596;2022-12-29T15:55:39;11.30;99.90
61253;DHT22;47127;47.516;8.596;2022-12-29T15:58:19;11.30;99.90
61253;DHT22;47127;47.516;8.596;2022-12-29T16:00:54;11.30;99.90
61253;DHT22;47127;47.516;8.596;2022-12-29T16:03:21;11.40;99.90
61253;DHT22;47127;47.516;8.596;2022-12-29T16:06:08;11.30;99.90
61253;DHT22;47127;47.516;8.596;2022-12-29T16:08:35;11.30;99.90
61253;DHT22;47127;47.516;8.596;2022-12-29T16:11:16;11.30;99.90
61253;DHT22;47127;47.516;8.596;2022-12-29T16:13:43;11.30;99.90
61253;DHT22;47127;47.516;8.596;2022-12-29T16:16:13;11.30;99.90
61253;DHT22;47127;47.516;8.596;2022-12-29T16:18:41;11.20;99.90
61253;DHT22;47127;47.516;8.596;2022-12-29T16:21:21;11.20;99.90
61253;DHT22;47127;47.516;8.596;2022-12-29T16:23:50;11.20;99.90
61253;DHT22;47127;47.516;8.596;2022-12-29T16:26:20;11.20;99.90
61253;DHT22;47127;47.516;8.596;2022-12-29T16:29:13;11.20;99.90
61253;DHT22;47127;47.516;8.596;2022-12-29T16:31:56;11.30;99.90
61253;DHT22;47127;47.516;8.596;2022-12-29T16:34:33;11.30;99.90
61253;DHT22;47127;47.516;8.596;2022-12-29T16:39:36;11.30;99.90
61253;DHT22;47127;47.516;8.596;2022-12-29T16:42:32;11.20;99.90
61253;DHT22;47127;47.516;8.596;2022-12-29T16:50:42;11.20;99.90
61253;DHT22;47127;47.516;8.596;2022-12-29T16:53:20;11.20;99.90
61253;DHT22;47127;47.516;8.596;2022-12-29T16:55:47;11.10;99.90
61253;DHT22;47127;47.516;8.596;2022-12-29T16:58:19;11.10;99.90
61253;DHT22;47127;47.516;8.596;2022-12-29T17:00:46;11.10;99.90
61253;DHT22;47127;47.516;8.596;2022-12-29T17:03:12;11.10;99.90
61253;DHT22;47127;47.516;8.596;2022-12-29T17:05:38;11.00;99.90
61253;DHT22;47127;47.516;8.596;2022-12-29T17:08:17;10.90;99.90
61253;DHT22;47127;47.516;8.596;2022-12-29T17:10:49;10.90;99.90
61253;DHT22;47127;47.516;8.596;2022-12-29T17:13:34;10.80;99.90
61253;DHT22;47127;47.516;8.596;2022-12-29T17:16:00;10.70;99.90
61253;DHT22;47127;47.516;8.596;2022-12-29T17:18:25;10.60;99.90
61253;DHT22;47127;47.516;8.596;2022-12-29T17:20:51;10.60;99.90
61253;DHT22;47127;47.516;8.596;2022-12-29T17:23:16;10.50;99.90
61253;DHT22;47127;47.516;8.596;2022-12-29T17:25:42;10.30;99.90
61253;DHT22;47127;47.516;8.596;2022-12-29T17:28:25;10.30;99.90
61253;DHT22;47127;47.516;8.596;2022-12-29T17:30:52;10.20;99.90
61253;DHT22;47127;47.516;8.596;2022-12-29T17:33:20;10.20;99.90
61253;DHT22;47127;47.516;8.596;2022-12-29T17:35:46;10.10;99.90
61253;DHT22;47127;47.516;8.596;2022-12-29T17:38:29;10.00;99.90
61253;DHT22;47127;47.516;8.596;2022-12-29T17:40:55;10.00;99.90
61253;DHT22;47127;47.516;8.596;2022-12-29T17:43:21;9.90;99.90
61253;DHT22;47127;47.516;8.596;2022-12-29T17:45:52;9.90;99.90
61253;DHT22;47127;47.516;8.596;2022-12-29T17:48:18;9.80;99.90
61253;DHT22;47127;47.516;8.596;2022-12-29T17:50:46;9.80;99.90
61253;DHT22;47127;47.516;8.596;2022-12-29T17:53:20;9.80;99.90
61253;DHT22;47127;47.516;8.596;2022-12-29T17:55:46;9.70;99.90
61253;DHT22;47127;47.516;8.596;2022-12-29T17:58:20;9.70;99.90